Time;durP1;ratioP1;P1;durP2;ratioP2;P2;SDS_P1;SDS_P2;PMS_P1;PMS_P2;Temp;Humidity;BMP_temperature;BMP_pressure;BME280_temperature;BME280_humidity;BME280_pressure;Samples;Min_cycle;Max_cycle;Signal;HPM_P1;HPM_P2
2022/05/19 00:01:07;;;;;;;;;;;9.60;92.30;;;;;;2604384;54;20718;31
2022/05/19 00:03:41;;;;;;;;;;;9.50;92.40;;;;;;2604208;54;20025;31
2022/05/19 00:06:14;;;;;;;;;;;9.50;92.60;;;;;;2622789;46;20746;31
2022/05/19 00:08:48;;;;;;;;;;;9.40;92.80;;;;;;2622633;46;19942;31
2022/05/19 00:11:26;;;;;;;;;;;9.30;92.80;;;;;;2604126;54;19981;31
2022/05/19 00:13:59;;;;;;;;;;;9.30;93.10;;;;;;2604599;46;19941;31
2022/05/19 00:16:33;;;;;;;;;;;9.20;93.10;;;;;;2613492;46;20762;31
2022/05/19 00:19:08;;;;;;;;;;;9.20;93.40;;;;;;2604116;54;19957;31
2022/05/19 00:21:42;;;;;;;;;;;9.10;93.50;;;;;;2603897;54;19939;31
2022/05/19 00:24:17;;;;;;;;;;;9.10;93.40;;;;;;2604086;54;20057;31
2022/05/19 00:26:57;;;;;;;;;;;9.00;93.80;;;;;;2604063;54;19946;31
2022/05/19 00:29:33;;;;;;;;;;;9.00;93.70;;;;;;2603952;54;19942;31
2022/05/19 00:32:08;;;;;;;;;;;9.00;93.90;;;;;;2622667;46;19938;31
2022/05/19 00:34:41;;;;;;;;;;;8.90;93.70;;;;;;2604007;54;20386;31
2022/05/19 00:37:15;;;;;;;;;;;9.00;94.00;;;;;;2622762;46;20777;31
2022/05/19 00:39:50;;;;;;;;;;;8.90;93.90;;;;;;2604293;54;19941;31
2022/05/19 00:45:14;;;;;;;;;;;8.90;94.10;;;;;;2622469;46;19935;31
2022/05/19 00:47:49;;;;;;;;;;;8.80;94.10;;;;;;2774231;31;22401;31
2022/05/19 00:50:25;;;;;;;;;;;8.80;94.20;;;;;;2622746;46;19990;31
2022/05/19 00:53:01;;;;;;;;;;;8.80;94.40;;;;;;2622576;46;19935;31
2022/05/19 00:55:36;;;;;;;;;;;8.70;94.80;;;;;;2622161;46;20400;31
2022/05/19 00:58:10;;;;;;;;;;;8.80;94.80;;;;;;2604105;54;20021;31
2022/05/19 01:00:48;;;;;;;;;;;8.60;94.80;;;;;;2604027;54;19934;31
2022/05/19 01:03:21;;;;;;;;;;;8.60;94.90;;;;;;2622441;46;19934;31
2022/05/19 01:05:57;;;;;;;;;;;8.50;95.00;;;;;;2622202;46;20021;31
2022/05/19 01:08:36;;;;;;;;;;;8.50;95.00;;;;;;2603797;54;19972;31
2022/05/19 01:11:10;;;;;;;;;;;8.50;94.60;;;;;;2622305;46;19946;31
2022/05/19 01:13:44;;;;;;;;;;;8.50;94.50;;;;;;2702616;39;20305;31
2022/05/19 01:16:23;;;;;;;;;;;8.50;94.70;;;;;;2621944;46;19942;31
2022/05/19 01:18:57;;;;;;;;;;;8.50;94.20;;;;;;2702340;39;21210;31
2022/05/19 01:21:32;;;;;;;;;;;8.60;94.90;;;;;;2603927;54;20745;31
2022/05/19 01:24:11;;;;;;;;;;;8.60;94.60;;;;;;2622714;46;20741;31
2022/05/19 01:26:49;;;;;;;;;;;8.50;94.50;;;;;;2603894;54;19935;31
2022/05/19 01:29:25;;;;;;;;;;;8.60;94.50;;;;;;2604026;54;20713;31
2022/05/19 01:32:02;;;;;;;;;;;8.60;94.40;;;;;;2604130;54;19954;31
2022/05/19 01:34:37;;;;;;;;;;;8.50;94.80;;;;;;2622233;46;19946;31
2022/05/19 01:37:11;;;;;;;;;;;8.50;94.80;;;;;;2603830;54;20040;31
2022/05/19 01:39:56;;;;;;;;;;;8.50;94.60;;;;;;2604037;54;19934;31
2022/05/19 01:42:37;;;;;;;;;;;8.70;94.80;;;;;;2622574;46;19966;31
2022/05/19 01:45:14;;;;;;;;;;;8.50;94.80;;;;;;2603773;54;20010;31
2022/05/19 01:47:48;;;;;;;;;;;8.50;95.00;;;;;;2622772;46;20015;31
2022/05/19 01:50:25;;;;;;;;;;;8.50;94.60;;;;;;2622515;46;19986;31
2022/05/19 01:53:02;;;;;;;;;;;9.00;95.20;;;;;;2721118;39;22338;31
2022/05/19 01:55:38;;;;;;;;;;;8.50;95.30;;;;;;2622493;46;19973;31
2022/05/19 01:58:16;;;;;;;;;;;8.40;95.10;;;;;;2622580;46;19997;31
2022/05/19 02:00:50;;;;;;;;;;;8.40;95.30;;;;;;2603716;54;19941;31
2022/05/19 02:03:27;;;;;;;;;;;8.40;95.50;;;;;;2721153;39;22182;31
2022/05/19 02:06:03;;;;;;;;;;;8.40;95.30;;;;;;2622356;46;19934;31
2022/05/19 02:08:39;;;;;;;;;;;8.30;96.00;;;;;;2622468;46;19969;31
2022/05/19 02:11:16;;;;;;;;;;;8.30;95.90;;;;;;2603967;54;19941;31
2022/05/19 02:13:56;;;;;;;;;;;8.30;96.20;;;;;;2603811;54;19985;31
2022/05/19 02:16:31;;;;;;;;;;;8.20;96.30;;;;;;2603734;54;19958;31
2022/05/19 02:19:06;;;;;;;;;;;8.20;96.50;;;;;;2605016;46;19946;31
2022/05/19 02:21:42;;;;;;;;;;;8.60;96.80;;;;;;2622374;46;20776;31
2022/05/19 02:24:18;;;;;;;;;;;8.10;96.60;;;;;;2618881;46;19943;31
2022/05/19 02:26:53;;;;;;;;;;;8.00;96.70;;;;;;2603889;54;19983;31
2022/05/19 02:29:31;;;;;;;;;;;8.00;97.00;;;;;;2618489;46;20385;31
2022/05/19 02:32:07;;;;;;;;;;;7.90;97.10;;;;;;2603702;54;19942;31
2022/05/19 02:34:44;;;;;;;;;;;7.90;97.50;;;;;;2622016;46;19943;31
2022/05/19 02:37:18;;;;;;;;;;;7.80;97.60;;;;;;2622200;46;20393;31
2022/05/19 02:39:52;;;;;;;;;;;7.80;97.50;;;;;;2702328;39;20289;31
2022/05/19 02:42:29;;;;;;;;;;;7.70;97.90;;;;;;2603909;54;20022;31
2022/05/19 02:45:07;;;;;;;;;;;7.70;98.20;;;;;;2622223;46;20796;31
2022/05/19 02:47:43;;;;;;;;;;;7.70;98.40;;;;;;2622224;46;20774;31
2022/05/19 02:50:19;;;;;;;;;;;7.60;98.40;;;;;;2702314;39;20348;31
2022/05/19 02:52:52;;;;;;;;;;;7.50;98.30;;;;;;2603738;54;19935;31
2022/05/19 02:55:27;;;;;;;;;;;7.70;98.70;;;;;;2603650;54;20097;31
2022/05/19 02:58:03;;;;;;;;;;;7.40;98.70;;;;;;2702507;39;20420;31
2022/05/19 03:00:41;;;;;;;;;;;7.30;98.90;;;;;;2622252;46;19935;31
2022/05/19 03:03:15;;;;;;;;;;;7.30;99.00;;;;;;2621789;46;19934;31
2022/05/19 03:05:50;;;;;;;;;;;7.20;99.30;;;;;;2622518;46;19941;31
2022/05/19 03:08:25;;;;;;;;;;;7.00;99.40;;;;;;2603767;54;20807;31
2022/05/19 03:10:59;;;;;;;;;;;7.20;99.70;;;;;;2702372;39;22105;31
2022/05/19 03:13:34;;;;;;;;;;;7.10;99.80;;;;;;2622047;46;19942;31
2022/05/19 03:16:12;;;;;;;;;;;7.10;99.90;;;;;;2621969;46;20756;31
2022/05/19 03:18:46;;;;;;;;;;;7.10;99.90;;;;;;2604072;54;19935;31
2022/05/19 03:21:21;;;;;;;;;;;7.10;99.90;;;;;;2623628;46;20835;31
2022/05/19 03:23:59;;;;;;;;;;;7.10;99.90;;;;;;2612036;46;19934;31
2022/05/19 03:26:36;;;;;;;;;;;7.10;99.90;;;;;;2622929;46;19989;31
2022/05/19 03:29:11;;;;;;;;;;;7.10;99.90;;;;;;2605393;54;19935;31
2022/05/19 03:31:49;;;;;;;;;;;7.20;99.90;;;;;;2606559;46;19942;31
2022/05/19 03:34:22;;;;;;;;;;;7.20;99.90;;;;;;2722560;39;21501;31
2022/05/19 03:36:57;;;;;;;;;;;7.20;99.90;;;;;;2623868;46;19934;31
2022/05/19 03:39:32;;;;;;;;;;;7.30;99.90;;;;;;2605263;54;19938;31
2022/05/19 03:42:08;;;;;;;;;;;7.40;99.90;;;;;;2605221;54;20754;31
2022/05/19 03:44:43;;;;;;;;;;;7.50;99.90;;;;;;2794133;31;20447;31
2022/05/19 03:47:21;;;;;;;;;;;7.80;99.90;;;;;;2624003;46;20373;31
2022/05/19 03:49:56;;;;;;;;;;;7.80;99.90;;;;;;2605621;54;19935;31
2022/05/19 03:52:30;;;;;;;;;;;8.00;99.90;;;;;;2624006;46;20366;31
2022/05/19 03:55:05;;;;;;;;;;;8.10;99.90;;;;;;2605022;54;19981;31
2022/05/19 03:57:40;;;;;;;;;;;8.30;99.60;;;;;;2623773;46;19993;31
2022/05/19 04:00:13;;;;;;;;;;;8.60;99.40;;;;;;2623894;46;19989;31
2022/05/19 04:02:52;;;;;;;;;;;8.70;99.10;;;;;;2605336;54;19934;31
2022/05/19 04:05:32;;;;;;;;;;;8.80;99.10;;;;;;2605114;54;19935;31
2022/05/19 04:08:05;;;;;;;;;;;9.00;98.80;;;;;;2623457;46;19942;31
2022/05/19 04:10:42;;;;;;;;;;;9.20;98.40;;;;;;2623322;46;19961;31
2022/05/19 04:13:18;;;;;;;;;;;9.40;98.10;;;;;;2605157;54;19961;31
2022/05/19 04:15:51;;;;;;;;;;;9.60;97.80;;;;;;2623744;46;19966;31
2022/05/19 04:18:28;;;;;;;;;;;9.70;97.80;;;;;;2605016;54;19934;31
2022/05/19 04:21:03;;;;;;;;;;;9.90;97.60;;;;;;2604677;54;19935;31
2022/05/19 04:23:38;;;;;;;;;;;10.10;97.10;;;;;;2623212;46;20778;31
2022/05/19 04:26:11;;;;;;;;;;;10.40;97.20;;;;;;2604900;54;19935;31
2022/05/19 04:28:44;;;;;;;;;;;10.60;97.00;;;;;;2605066;54;19931;31
2022/05/19 04:31:22;;;;;;;;;;;10.80;96.60;;;;;;2622739;46;20760;31
2022/05/19 04:34:00;;;;;;;;;;;11.10;96.40;;;;;;2604027;54;19941;31
2022/05/19 04:36:37;;;;;;;;;;;11.30;96.10;;;;;;2622551;46;19950;31
2022/05/19 04:39:12;;;;;;;;;;;11.40;96.00;;;;;;2604290;54;19941;31
2022/05/19 04:41:49;;;;;;;;;;;11.50;95.90;;;;;;2604027;54;20010;31
2022/05/19 04:44:27;;;;;;;;;;;11.70;95.90;;;;;;2603898;54;20783;31
2022/05/19 04:47:01;;;;;;;;;;;11.80;95.90;;;;;;2615657;46;20823;31
2022/05/19 04:49:40;;;;;;;;;;;12.00;95.90;;;;;;2604148;54;19935;31
2022/05/19 04:52:20;;;;;;;;;;;12.20;95.60;;;;;;2622832;46;20641;31
2022/05/19 04:54:55;;;;;;;;;;;12.30;95.40;;;;;;2604037;54;19946;31
2022/05/19 04:57:31;;;;;;;;;;;12.50;95.20;;;;;;2603351;54;19946;31
2022/05/19 05:00:06;;;;;;;;;;;12.70;95.00;;;;;;2603940;54;19942;31
2022/05/19 05:02:40;;;;;;;;;;;12.90;94.70;;;;;;2702358;39;20392;31
2022/05/19 05:05:20;;;;;;;;;;;13.20;95.20;;;;;;2603998;54;19935;31
2022/05/19 05:08:00;;;;;;;;;;;13.40;94.40;;;;;;2622291;46;20750;31
2022/05/19 05:10:34;;;;;;;;;;;13.70;94.20;;;;;;2603888;54;19942;31
2022/05/19 05:13:09;;;;;;;;;;;13.80;93.70;;;;;;2608234;46;19934;31
2022/05/19 05:15:46;;;;;;;;;;;14.00;93.80;;;;;;2603889;54;20844;31
2022/05/19 05:18:27;;;;;;;;;;;14.10;93.60;;;;;;2622473;46;20693;31
2022/05/19 05:21:07;;;;;;;;;;;14.20;93.80;;;;;;2603831;54;19935;31
2022/05/19 05:23:42;;;;;;;;;;;14.30;93.60;;;;;;2622271;46;19990;31
2022/05/19 05:26:17;;;;;;;;;;;14.60;93.90;;;;;;2618995;46;20028;31
2022/05/19 05:28:52;;;;;;;;;;;14.80;93.80;;;;;;2603919;54;20828;31
2022/05/19 05:31:29;;;;;;;;;;;15.10;93.40;;;;;;2604129;54;19942;31
2022/05/19 05:34:04;;;;;;;;;;;15.30;92.50;;;;;;2622391;46;20811;31
2022/05/19 05:36:46;;;;;;;;;;;15.50;92.70;;;;;;2621948;46;20672;31
2022/05/19 05:39:23;;;;;;;;;;;15.70;92.70;;;;;;2622485;46;19934;31
2022/05/19 05:41:59;;;;;;;;;;;16.00;92.20;;;;;;2603972;54;19989;31
2022/05/19 05:44:32;;;;;;;;;;;16.20;92.20;;;;;;2622650;46;19941;31
2022/05/19 05:47:07;;;;;;;;;;;16.50;91.70;;;;;;2603701;54;19941;31
2022/05/19 05:49:40;;;;;;;;;;;16.80;91.90;;;;;;2603723;54;19934;31
2022/05/19 05:52:15;;;;;;;;;;;17.10;91.40;;;;;;2604045;54;20750;31
2022/05/19 05:54:52;;;;;;;;;;;17.30;91.00;;;;;;2603859;54;20731;31
2022/05/19 05:57:26;;;;;;;;;;;17.70;91.10;;;;;;2603779;54;19961;31
2022/05/19 06:00:04;;;;;;;;;;;17.90;89.70;;;;;;2603724;54;19934;31
2022/05/19 06:02:45;;;;;;;;;;;18.20;89.20;;;;;;2603819;54;19947;31
2022/05/19 06:05:19;;;;;;;;;;;18.50;86.20;;;;;;2603763;54;19942;31
2022/05/19 06:07:54;;;;;;;;;;;18.80;86.20;;;;;;2602977;54;20811;31
2022/05/19 06:10:34;;;;;;;;;;;19.10;84.80;;;;;;2603571;54;19934;31
2022/05/19 06:13:10;;;;;;;;;;;19.40;83.60;;;;;;2613345;46;19962;31
2022/05/19 06:15:44;;;;;;;;;;;19.80;83.30;;;;;;2603740;54;19935;31
2022/05/19 06:18:20;;;;;;;;;;;20.00;82.40;;;;;;2621913;46;20737;31
2022/05/19 06:21:03;;;;;;;;;;;20.20;82.70;;;;;;2603933;54;19935;31
2022/05/19 06:23:39;;;;;;;;;;;20.40;81.40;;;;;;2603753;54;19935;31
2022/05/19 06:26:15;;;;;;;;;;;20.60;81.00;;;;;;2622232;46;19941;31
2022/05/19 06:28:50;;;;;;;;;;;20.90;81.10;;;;;;2622239;46;20029;31
2022/05/19 06:31:24;;;;;;;;;;;21.10;79.50;;;;;;2603614;54;19934;31
2022/05/19 06:34:00;;;;;;;;;;;21.20;78.90;;;;;;2603515;54;19935;31
2022/05/19 06:36:34;;;;;;;;;;;21.40;77.90;;;;;;2622366;46;20053;31
2022/05/19 06:39:12;;;;;;;;;;;21.60;79.10;;;;;;2702066;39;20381;31
2022/05/19 06:44:37;;;;;;;;;;;22.00;77.60;;;;;;2603870;54;19954;31
2022/05/19 06:47:16;;;;;;;;;;;22.20;77.50;;;;;;2607327;39;21129;31
2022/05/19 06:49:51;;;;;;;;;;;22.50;77.00;;;;;;2603826;54;19958;31
2022/05/19 06:52:26;;;;;;;;;;;22.70;76.40;;;;;;2621976;46;19942;31
2022/05/19 06:54:59;;;;;;;;;;;22.90;76.10;;;;;;2603462;54;20013;31
2022/05/19 06:57:37;;;;;;;;;;;23.00;74.40;;;;;;2609005;46;19993;31
2022/05/19 07:00:13;;;;;;;;;;;23.20;73.60;;;;;;2603444;54;19935;31
2022/05/19 07:02:49;;;;;;;;;;;23.30;72.90;;;;;;2603478;54;19941;31
2022/05/19 07:05:24;;;;;;;;;;;23.60;73.40;;;;;;2603778;54;19935;31
2022/05/19 07:07:58;;;;;;;;;;;23.70;72.00;;;;;;2603789;54;19961;31
2022/05/19 07:10:34;;;;;;;;;;;23.80;71.60;;;;;;2621974;46;20719;31
2022/05/19 07:13:11;;;;;;;;;;;24.00;71.70;;;;;;2610195;39;20821;31
2022/05/19 07:15:45;;;;;;;;;;;24.30;72.80;;;;;;2603639;54;20769;31
2022/05/19 07:18:21;;;;;;;;;;;24.50;72.10;;;;;;2603170;54;20017;31
2022/05/19 07:20:54;;;;;;;;;;;24.70;70.90;;;;;;2603314;54;20393;31
2022/05/19 07:23:30;;;;;;;;;;;25.00;70.90;;;;;;2603312;54;19941;31
2022/05/19 07:26:05;;;;;;;;;;;25.20;69.00;;;;;;2621695;47;19934;31
2022/05/19 07:28:43;;;;;;;;;;;25.30;71.20;;;;;;2603270;54;20017;31
2022/05/19 07:31:18;;;;;;;;;;;25.50;70.00;;;;;;2603576;54;19935;31
2022/05/19 07:33:53;;;;;;;;;;;25.50;68.20;;;;;;2720737;39;20909;31
2022/05/19 07:36:28;;;;;;;;;;;25.50;69.80;;;;;;2603647;54;19934;31
2022/05/19 07:39:04;;;;;;;;;;;25.60;67.70;;;;;;2603549;54;19935;31
2022/05/19 07:41:44;;;;;;;;;;;25.70;69.30;;;;;;2621966;47;19934;31
2022/05/19 07:44:24;;;;;;;;;;;25.70;68.80;;;;;;2621941;47;20778;31
2022/05/19 07:46:59;;;;;;;;;;;25.80;68.70;;;;;;2622152;47;19935;31
2022/05/19 07:49:35;;;;;;;;;;;26.00;69.40;;;;;;2622060;47;20772;31
2022/05/19 07:52:09;;;;;;;;;;;26.20;71.20;;;;;;2622018;47;19934;31
2022/05/19 07:54:44;;;;;;;;;;;26.50;69.80;;;;;;2603537;54;19954;31
2022/05/19 07:57:19;;;;;;;;;;;26.90;69.40;;;;;;2603360;54;20021;31
2022/05/19 08:00:01;;;;;;;;;;;26.90;66.80;;;;;;2603089;54;19941;31
2022/05/19 08:02:46;;;;;;;;;;;27.00;66.20;;;;;;2603502;54;19946;31
2022/05/19 08:05:19;;;;;;;;;;;27.00;66.50;;;;;;2603728;54;19939;31
2022/05/19 08:07:56;;;;;;;;;;;27.20;67.40;;;;;;2604020;54;20379;31
2022/05/19 08:10:34;;;;;;;;;;;27.30;65.70;;;;;;2622737;46;19935;31
2022/05/19 08:16:04;;;;;;;;;;;27.70;66.10;;;;;;2604349;54;19934;31
2022/05/19 08:18:39;;;;;;;;;;;27.90;65.20;;;;;;2604031;54;20751;31
2022/05/19 08:21:16;;;;;;;;;;;28.00;64.80;;;;;;2604257;54;19935;31
2022/05/19 08:23:51;;;;;;;;;;;28.20;64.10;;;;;;2604264;54;20766;31
2022/05/19 08:26:26;;;;;;;;;;;28.10;64.40;;;;;;2620707;46;19948;31
2022/05/19 08:29:02;;;;;;;;;;;28.20;64.40;;;;;;2622077;46;20025;31
2022/05/19 08:31:39;;;;;;;;;;;28.20;65.00;;;;;;2603960;54;19941;31
2022/05/19 08:34:16;;;;;;;;;;;28.50;64.60;;;;;;2603530;54;20763;31
2022/05/19 08:36:51;;;;;;;;;;;28.70;64.70;;;;;;2604342;54;19986;31
2022/05/19 08:39:27;;;;;;;;;;;28.90;64.50;;;;;;2622704;46;19934;31
2022/05/19 08:42:02;;;;;;;;;;;28.90;63.20;;;;;;2603484;54;20020;31
2022/05/19 08:44:37;;;;;;;;;;;28.90;63.20;;;;;;2603973;54;19958;31
2022/05/19 08:47:15;;;;;;;;;;;29.00;63.40;;;;;;2603307;54;19943;31
2022/05/19 08:49:54;;;;;;;;;;;29.00;63.10;;;;;;2604211;54;19962;31
2022/05/19 08:52:29;;;;;;;;;;;29.00;62.30;;;;;;2604377;54;19935;31
2022/05/19 08:55:04;;;;;;;;;;;29.20;62.40;;;;;;2604171;54;19935;31
2022/05/19 08:57:42;;;;;;;;;;;28.80;61.50;;;;;;2702643;39;20355;31
2022/05/19 09:00:18;;;;;;;;;;;28.70;62.20;;;;;;2721392;39;20993;31
2022/05/19 09:02:54;;;;;;;;;;;28.60;61.80;;;;;;2603882;54;20688;31
2022/05/19 09:05:36;;;;;;;;;;;28.60;62.40;;;;;;2622985;46;19934;31
2022/05/19 09:08:14;;;;;;;;;;;28.80;62.30;;;;;;2604039;54;19935;31
2022/05/19 09:10:51;;;;;;;;;;;29.00;61.90;;;;;;2622666;46;19935;31
2022/05/19 09:13:27;;;;;;;;;;;29.00;62.20;;;;;;2604463;54;19989;31
2022/05/19 09:16:06;;;;;;;;;;;29.20;60.90;;;;;;2622378;46;19938;31
2022/05/19 09:18:45;;;;;;;;;;;29.40;61.70;;;;;;2604170;54;19934;31
2022/05/19 09:21:22;;;;;;;;;;;29.50;59.40;;;;;;2603998;54;19934;31
2022/05/19 09:23:56;;;;;;;;;;;29.60;60.90;;;;;;2622410;46;20650;31
2022/05/19 09:26:38;;;;;;;;;;;29.80;60.10;;;;;;2620881;46;19949;31
2022/05/19 09:29:13;;;;;;;;;;;29.70;59.30;;;;;;2622312;46;19935;31
2022/05/19 09:31:50;;;;;;;;;;;29.70;59.80;;;;;;2615706;46;19942;31
2022/05/19 09:34:25;;;;;;;;;;;29.80;59.10;;;;;;2603182;54;20788;31
2022/05/19 09:37:11;;;;;;;;;;;29.70;59.20;;;;;;2604072;54;19942;31
2022/05/19 09:39:47;;;;;;;;;;;29.80;58.20;;;;;;2604052;54;19934;31
2022/05/19 09:42:25;;;;;;;;;;;29.90;59.70;;;;;;2603122;54;19989;31
2022/05/19 09:45:00;;;;;;;;;;;30.20;60.30;;;;;;2621720;46;19949;31
2022/05/19 09:47:36;;;;;;;;;;;30.30;60.20;;;;;;2603166;54;20655;31
2022/05/19 09:50:12;;;;;;;;;;;30.30;58.20;;;;;;2622274;46;20779;31
2022/05/19 09:52:49;;;;;;;;;;;30.50;57.70;;;;;;2603849;54;20757;31
2022/05/19 09:55:25;;;;;;;;;;;30.50;58.10;;;;;;2603319;54;19934;31
2022/05/19 09:58:05;;;;;;;;;;;30.70;56.70;;;;;;2603576;54;20812;31
2022/05/19 10:00:40;;;;;;;;;;;30.70;57.70;;;;;;2603942;54;19942;31
2022/05/19 10:03:15;;;;;;;;;;;30.70;57.10;;;;;;2702834;39;22094;31
2022/05/19 10:05:50;;;;;;;;;;;30.60;59.00;;;;;;2774190;31;22324;31
2022/05/19 10:08:30;;;;;;;;;;;30.60;57.30;;;;;;2603805;54;20017;31
2022/05/19 10:11:04;;;;;;;;;;;30.50;58.40;;;;;;2602982;54;19954;31
2022/05/19 10:13:40;;;;;;;;;;;30.50;58.90;;;;;;2603705;54;19938;31
2022/05/19 10:16:16;;;;;;;;;;;30.40;58.50;;;;;;2603809;54;19935;31
2022/05/19 10:18:55;;;;;;;;;;;30.30;56.40;;;;;;2603660;54;20837;31
2022/05/19 10:21:33;;;;;;;;;;;30.40;57.00;;;;;;2603993;54;19934;31
2022/05/19 10:24:20;;;;;;;;;;;30.50;57.30;;;;;;2603240;54;19943;31
2022/05/19 10:31:02;;;;;;;;;;;30.50;57.40;;;;;;2622504;46;19935;31
2022/05/19 10:32:44;;;;;;;;;;;30.30;57.60;;;;;;2604130;54;20026;31
2022/05/19 10:35:19;;;;;;;;;;;30.20;57.30;;;;;;2603602;54;19988;31
2022/05/19 10:38:00;;;;;;;;;;;30.00;57.50;;;;;;2701640;39;21216;31
2022/05/19 10:40:49;;;;;;;;;;;30.00;58.70;;;;;;2621985;46;19934;31
2022/05/19 10:43:33;;;;;;;;;;;30.00;57.80;;;;;;2603492;54;19941;31
2022/05/19 10:46:05;;;;;;;;;;;29.80;56.90;;;;;;2721251;39;20918;31
2022/05/19 10:48:49;;;;;;;;;;;29.50;56.80;;;;;;2603858;54;20021;31
2022/05/19 10:51:27;;;;;;;;;;;29.50;57.50;;;;;;2603653;54;19939;31
2022/05/19 10:54:19;;;;;;;;;;;29.70;57.10;;;;;;2622187;46;20020;31
2022/05/19 10:57:08;;;;;;;;;;;29.40;56.10;;;;;;2622132;46;19941;31
2022/05/19 10:59:51;;;;;;;;;;;29.10;57.00;;;;;;2603469;54;19989;31
2022/05/19 11:02:31;;;;;;;;;;;28.90;57.40;;;;;;2622050;46;20064;31
2022/05/19 11:05:09;;;;;;;;;;;28.80;57.30;;;;;;2602819;54;19946;31
2022/05/19 11:07:47;;;;;;;;;;;28.90;58.70;;;;;;2610853;46;19938;31
2022/05/19 11:10:24;;;;;;;;;;;28.80;56.90;;;;;;2701279;39;21197;31
2022/05/19 11:13:01;;;;;;;;;;;28.70;57.30;;;;;;2617040;46;20773;31
2022/05/19 11:15:39;;;;;;;;;;;28.60;56.30;;;;;;2622191;46;19935;31
2022/05/19 11:18:15;;;;;;;;;;;28.50;57.10;;;;;;2603494;54;19939;31
2022/05/19 11:20:55;;;;;;;;;;;28.40;57.80;;;;;;2702169;39;20919;31
2022/05/19 11:23:36;;;;;;;;;;;28.30;57.00;;;;;;2602726;54;20616;31
2022/05/19 11:26:27;;;;;;;;;;;28.30;56.30;;;;;;2621825;47;19934;31
2022/05/19 11:29:17;;;;;;;;;;;28.40;57.70;;;;;;2603723;54;19961;31
2022/05/19 11:31:56;;;;;;;;;;;28.30;54.90;;;;;;2603596;54;19947;31
2022/05/19 11:34:33;;;;;;;;;;;28.30;54.60;;;;;;2603319;54;20017;31
2022/05/19 11:37:09;;;;;;;;;;;28.30;56.60;;;;;;2622036;47;19934;31
2022/05/19 11:39:43;;;;;;;;;;;28.50;57.90;;;;;;2622177;47;19938;31
2022/05/19 11:42:21;;;;;;;;;;;28.60;56.50;;;;;;2604761;54;19941;31
2022/05/19 11:44:58;;;;;;;;;;;28.40;55.00;;;;;;2622741;46;19939;31
2022/05/19 11:56:03;;;;;;;;;;;27.90;53.80;;;;;;2622659;46;20021;31
2022/05/19 11:58:39;;;;;;;;;;;27.70;54.40;;;;;;2604246;54;20826;31
2022/05/19 12:01:17;;;;;;;;;;;27.60;54.00;;;;;;2622444;46;20749;31
2022/05/19 12:04:00;;;;;;;;;;;27.60;53.60;;;;;;2604194;54;19968;31
2022/05/19 12:06:35;;;;;;;;;;;27.50;53.40;;;;;;2701927;39;21198;31
2022/05/19 12:09:14;;;;;;;;;;;27.40;54.20;;;;;;2603646;54;19997;31
2022/05/19 12:11:52;;;;;;;;;;;27.40;55.00;;;;;;2602966;54;19942;31
2022/05/19 12:14:38;;;;;;;;;;;27.30;54.70;;;;;;2604238;54;19941;31
2022/05/19 12:17:18;;;;;;;;;;;27.30;56.00;;;;;;2603805;54;20746;31
2022/05/19 12:20:03;;;;;;;;;;;27.30;54.50;;;;;;2603337;54;20065;31
2022/05/19 12:22:40;;;;;;;;;;;27.40;53.60;;;;;;2622635;46;20737;31
2022/05/19 12:25:19;;;;;;;;;;;27.30;53.80;;;;;;2604257;54;19941;31
2022/05/19 12:27:58;;;;;;;;;;;27.40;55.80;;;;;;2604160;54;20017;31
2022/05/19 12:33:25;;;;;;;;;;;27.30;56.20;;;;;;2603789;54;19942;31
2022/05/19 12:36:08;;;;;;;;;;;27.40;57.60;;;;;;2604143;54;20009;31
2022/05/19 12:38:45;;;;;;;;;;;27.50;57.40;;;;;;2604076;54;19935;31
2022/05/19 12:41:36;;;;;;;;;;;27.60;56.70;;;;;;2622813;46;20808;31
2022/05/19 12:44:25;;;;;;;;;;;27.60;55.80;;;;;;2622878;46;19938;31
2022/05/19 12:47:00;;;;;;;;;;;27.60;54.60;;;;;;2604488;54;19941;31
2022/05/19 12:49:36;;;;;;;;;;;27.50;55.00;;;;;;2604073;54;19935;31
2022/05/19 12:52:16;;;;;;;;;;;27.60;56.30;;;;;;2603935;54;20729;31
2022/05/19 12:54:54;;;;;;;;;;;27.70;56.60;;;;;;2603287;54;19954;31
2022/05/19 12:57:34;;;;;;;;;;;27.80;57.00;;;;;;2604077;54;20776;31
2022/05/19 13:00:13;;;;;;;;;;;27.80;56.20;;;;;;2604146;54;19935;31
2022/05/19 13:02:57;;;;;;;;;;;27.80;57.50;;;;;;2604017;54;20009;31
2022/05/19 13:05:33;;;;;;;;;;;27.80;56.50;;;;;;2702776;39;20899;31
2022/05/19 13:08:12;;;;;;;;;;;27.80;58.60;;;;;;2622466;46;19934;31
2022/05/19 13:10:50;;;;;;;;;;;27.80;57.00;;;;;;2604314;54;20417;31
2022/05/19 13:13:29;;;;;;;;;;;27.80;58.30;;;;;;2604321;54;19946;31
2022/05/19 13:16:04;;;;;;;;;;;27.90;57.10;;;;;;2604000;54;19990;31
2022/05/19 13:18:39;;;;;;;;;;;27.80;56.00;;;;;;2604044;54;19989;31
2022/05/19 13:21:14;;;;;;;;;;;27.80;56.60;;;;;;2622233;46;20793;31
2022/05/19 13:23:48;;;;;;;;;;;27.70;57.10;;;;;;2622507;46;19935;31
2022/05/19 13:26:24;;;;;;;;;;;27.80;58.20;;;;;;2604349;54;19942;31
2022/05/19 13:31:53;;;;;;;;;;;27.80;57.50;;;;;;2604126;54;19934;31
2022/05/19 13:34:27;;;;;;;;;;;27.70;56.90;;;;;;2622677;46;19962;31
2022/05/19 13:37:02;;;;;;;;;;;27.70;59.00;;;;;;2603865;54;20816;31
2022/05/19 13:39:36;;;;;;;;;;;27.80;59.20;;;;;;2604099;54;19941;31
2022/05/19 13:42:10;;;;;;;;;;;27.80;56.00;;;;;;2604005;54;19934;31
2022/05/19 13:44:47;;;;;;;;;;;27.70;56.60;;;;;;2604127;54;19942;31
2022/05/19 13:47:21;;;;;;;;;;;27.80;56.30;;;;;;2604194;54;20321;31
2022/05/19 13:49:56;;;;;;;;;;;27.80;56.10;;;;;;2603130;54;19962;31
2022/05/19 13:52:31;;;;;;;;;;;27.80;55.90;;;;;;2622854;46;19934;31
2022/05/19 13:55:05;;;;;;;;;;;27.80;54.90;;;;;;2622641;46;19954;31
2022/05/19 13:57:40;;;;;;;;;;;27.80;56.00;;;;;;2604119;54;19961;31
2022/05/19 14:00:18;;;;;;;;;;;27.90;56.30;;;;;;2603893;54;19935;31
2022/05/19 14:02:52;;;;;;;;;;;27.90;53.90;;;;;;2622079;46;20822;31
2022/05/19 14:05:28;;;;;;;;;;;27.80;54.20;;;;;;2603432;54;19997;31
2022/05/19 14:08:05;;;;;;;;;;;27.80;53.00;;;;;;2604011;54;19946;31
2022/05/19 14:11:00;;;;;;;;;;;27.70;53.50;;;;;;2622535;46;19951;31
2022/05/19 14:13:32;;;;;;;;;;;27.70;55.70;;;;;;2604030;54;20811;31
2022/05/19 14:16:10;;;;;;;;;;;27.70;54.60;;;;;;2604160;54;19989;31
2022/05/19 14:18:45;;;;;;;;;;;27.70;54.20;;;;;;2603100;54;19997;31
2022/05/19 14:21:19;;;;;;;;;;;27.60;54.00;;;;;;2602662;54;19941;31
2022/05/19 14:23:55;;;;;;;;;;;27.50;55.10;;;;;;2602924;54;19934;31
2022/05/19 14:26:32;;;;;;;;;;;27.50;53.50;;;;;;2603438;54;20795;31
2022/05/19 14:29:07;;;;;;;;;;;27.40;53.90;;;;;;2622546;46;19934;31
2022/05/19 14:31:54;;;;;;;;;;;27.40;55.10;;;;;;2603791;54;20090;31
2022/05/19 14:34:30;;;;;;;;;;;27.30;56.40;;;;;;2603738;54;20755;31
2022/05/19 14:37:09;;;;;;;;;;;27.30;57.30;;;;;;2621636;46;19962;31
2022/05/19 14:39:43;;;;;;;;;;;27.30;56.20;;;;;;2622236;46;19938;31
2022/05/19 14:45:08;;;;;;;;;;;27.30;58.10;;;;;;2603736;54;19935;31
2022/05/19 14:47:46;;;;;;;;;;;27.30;56.90;;;;;;2603120;54;19993;31
2022/05/19 14:50:22;;;;;;;;;;;27.30;56.80;;;;;;2603661;54;19935;31
2022/05/19 14:52:57;;;;;;;;;;;27.30;55.60;;;;;;2604066;54;19942;31
2022/05/19 14:55:34;;;;;;;;;;;27.30;56.20;;;;;;2603641;54;19994;31
2022/05/19 14:58:14;;;;;;;;;;;27.40;55.50;;;;;;2603726;54;20760;31
2022/05/19 15:00:49;;;;;;;;;;;27.40;56.50;;;;;;2622416;46;19934;31
2022/05/19 15:03:27;;;;;;;;;;;27.40;57.50;;;;;;2603517;54;20762;31
2022/05/19 15:06:01;;;;;;;;;;;27.40;57.30;;;;;;2603374;54;19957;31
2022/05/19 15:08:36;;;;;;;;;;;27.40;58.30;;;;;;2603717;54;19941;31
2022/05/19 15:11:10;;;;;;;;;;;27.40;59.50;;;;;;2603629;54;19934;31
2022/05/19 15:13:43;;;;;;;;;;;27.50;58.80;;;;;;2603707;54;19935;31
2022/05/19 15:16:17;;;;;;;;;;;27.40;58.10;;;;;;2603506;54;19934;31
2022/05/19 15:18:54;;;;;;;;;;;27.40;57.30;;;;;;2603816;54;19934;31
2022/05/19 15:21:28;;;;;;;;;;;27.40;58.10;;;;;;2603812;54;19938;31
2022/05/19 15:24:01;;;;;;;;;;;27.50;58.40;;;;;;2603432;54;20766;31
2022/05/19 15:26:35;;;;;;;;;;;27.40;58.10;;;;;;2622139;47;19942;31
2022/05/19 15:29:09;;;;;;;;;;;27.40;59.00;;;;;;2622058;47;19990;31
2022/05/19 15:31:41;;;;;;;;;;;27.40;59.00;;;;;;2721199;39;22107;31
2022/05/19 15:34:21;;;;;;;;;;;27.30;59.70;;;;;;2621799;47;20726;31
2022/05/19 15:36:55;;;;;;;;;;;27.40;60.40;;;;;;2622198;47;19935;31
2022/05/19 15:39:29;;;;;;;;;;;27.40;60.70;;;;;;2603745;54;20754;31
2022/05/19 15:42:03;;;;;;;;;;;27.40;60.00;;;;;;2603588;54;19934;31
2022/05/19 15:44:37;;;;;;;;;;;27.30;60.80;;;;;;2603501;54;19946;31
2022/05/19 15:47:12;;;;;;;;;;;27.40;60.90;;;;;;2622082;47;19980;31
2022/05/19 15:49:49;;;;;;;;;;;27.40;60.30;;;;;;2603609;54;19942;31
2022/05/19 15:52:24;;;;;;;;;;;27.30;59.70;;;;;;2621794;47;19958;31
2022/05/19 15:54:58;;;;;;;;;;;27.30;60.10;;;;;;2603322;54;20060;31
2022/05/19 15:57:32;;;;;;;;;;;27.30;61.20;;;;;;2603554;54;19938;31